sensor_id;sensor_type;location;lat;lon;timestamp;temperature;humidity
10875;DHT22;5490;52.200;8.786;2023-03-29T00:01:22;7.70;99.90
10875;DHT22;5490;52.200;8.786;2023-03-29T00:03:50;7.60;99.90
10875;DHT22;5490;52.200;8.786;2023-03-29T00:06:18;7.60;99.90
10875;DHT22;5490;52.200;8.786;2023-03-29T00:08:51;7.60;99.90
10875;DHT22;5490;52.200;8.786;2023-03-29T00:11:18;7.60;99.90
10875;DHT22;5490;52.200;8.786;2023-03-29T00:13:47;7.60;99.90
10875;DHT22;5490;52.200;8.786;2023-03-29T00:16:14;7.60;99.90
10875;DHT22;5490;52.200;8.786;2023-03-29T00:18:41;7.50;99.90
10875;DHT22;5490;52.200;8.786;2023-03-29T00:21:08;7.60;99.90
10875;DHT22;5490;52.200;8.786;2023-03-29T00:23:35;7.60;99.90
10875;DHT22;5490;52.200;8.786;2023-03-29T00:26:02;7.60;99.90
10875;DHT22;5490;52.200;8.786;2023-03-29T00:28:30;7.60;99.90
10875;DHT22;5490;52.200;8.786;2023-03-29T00:31:05;7.60;99.90
10875;DHT22;5490;52.200;8.786;2023-03-29T00:33:32;7.50;99.90
10875;DHT22;5490;52.200;8.786;2023-03-29T00:35:59;7.50;99.90
10875;DHT22;5490;52.200;8.786;2023-03-29T00:38:26;7.50;99.90
10875;DHT22;5490;52.200;8.786;2023-03-29T00:40:53;7.50;99.90
10875;DHT22;5490;52.200;8.786;2023-03-29T00:43:20;7.50;99.90
10875;DHT22;5490;52.200;8.786;2023-03-29T00:45:47;7.50;99.90
10875;DHT22;5490;52.200;8.786;2023-03-29T00:48:17;7.50;99.90
10875;DHT22;5490;52.200;8.786;2023-03-29T00:50:49;7.40;99.90
10875;DHT22;5490;52.200;8.786;2023-03-29T00:53:21;7.40;99.90
10875;DHT22;5490;52.200;8.786;2023-03-29T00:55:52;7.40;99.90
10875;DHT22;5490;52.200;8.786;2023-03-29T00:58:22;7.40;99.90
10875;DHT22;5490;52.200;8.786;2023-03-29T01:00:55;7.40;99.90
10875;DHT22;5490;52.200;8.786;2023-03-29T01:03:30;7.50;99.90
10875;DHT22;5490;52.200;8.786;2023-03-29T01:06:02;7.40;99.90
10875;DHT22;5490;52.200;8.786;2023-03-29T01:08:33;7.30;99.90
10875;DHT22;5490;52.200;8.786;2023-03-29T01:11:04;7.30;99.90
10875;DHT22;5490;52.200;8.786;2023-03-29T01:13:35;7.30;99.90
10875;DHT22;5490;52.200;8.786;2023-03-29T01:16:05;7.30;99.90
10875;DHT22;5490;52.200;8.786;2023-03-29T01:18:34;7.20;99.90
10875;DHT22;5490;52.200;8.786;2023-03-29T01:21:20;7.20;99.90
10875;DHT22;5490;52.200;8.786;2023-03-29T01:26:51;7.20;99.90
10875;DHT22;5490;52.200;8.786;2023-03-29T01:29:24;7.20;99.90
10875;DHT22;5490;52.200;8.786;2023-03-29T01:31:56;7.20;99.90
10875;DHT22;5490;52.200;8.786;2023-03-29T01:34:26;7.10;99.90
10875;DHT22;5490;52.200;8.786;2023-03-29T01:37:01;7.10;99.90
10875;DHT22;5490;52.200;8.786;2023-03-29T01:39:30;7.10;99.90
10875;DHT22;5490;52.200;8.786;2023-03-29T01:42:14;7.10;99.90
10875;DHT22;5490;52.200;8.786;2023-03-29T01:44:47;7.10;99.90
10875;DHT22;5490;52.200;8.786;2023-03-29T01:47:23;7.10;99.90
10875;DHT22;5490;52.200;8.786;2023-03-29T01:49:57;7.10;99.90
10875;DHT22;5490;52.200;8.786;2023-03-29T01:52:30;7.10;99.90
10875;DHT22;5490;52.200;8.786;2023-03-29T01:55:01;7.00;99.90
10875;DHT22;5490;52.200;8.786;2023-03-29T01:57:29;7.10;99.90
10875;DHT22;5490;52.200;8.786;2023-03-29T01:59:59;7.10;99.90
10875;DHT22;5490;52.200;8.786;2023-03-29T02:02:37;7.00;99.90
10875;DHT22;5490;52.200;8.786;2023-03-29T02:05:07;7.00;99.90
10875;DHT22;5490;52.200;8.786;2023-03-29T02:07:35;7.00;99.90
10875;DHT22;5490;52.200;8.786;2023-03-29T02:10:06;7.00;99.90
10875;DHT22;5490;52.200;8.786;2023-03-29T02:12:35;6.90;99.90
10875;DHT22;5490;52.200;8.786;2023-03-29T02:15:09;6.80;99.90
10875;DHT22;5490;52.200;8.786;2023-03-29T02:17:36;6.80;99.90
10875;DHT22;5490;52.200;8.786;2023-03-29T02:20:06;6.70;99.90
10875;DHT22;5490;52.200;8.786;2023-03-29T02:22:43;6.70;99.90
10875;DHT22;5490;52.200;8.786;2023-03-29T02:25:12;6.70;99.90
10875;DHT22;5490;52.200;8.786;2023-03-29T02:27:40;6.70;99.90
10875;DHT22;5490;52.200;8.786;2023-03-29T02:30:09;6.70;99.90
10875;DHT22;5490;52.200;8.786;2023-03-29T02:32:45;6.70;99.90
10875;DHT22;5490;52.200;8.786;2023-03-29T02:35:19;6.70;99.90
10875;DHT22;5490;52.200;8.786;2023-03-29T02:37:48;6.70;99.90
10875;DHT22;5490;52.200;8.786;2023-03-29T02:40:20;6.60;99.90
10875;DHT22;5490;52.200;8.786;2023-03-29T02:42:48;6.60;99.90
10875;DHT22;5490;52.200;8.786;2023-03-29T02:45:17;6.60;99.90
10875;DHT22;5490;52.200;8.786;2023-03-29T02:47:49;6.60;99.90
10875;DHT22;5490;52.200;8.786;2023-03-29T02:50:17;6.60;99.90
10875;DHT22;5490;52.200;8.786;2023-03-29T02:52:50;6.60;99.90
10875;DHT22;5490;52.200;8.786;2023-03-29T02:59:27;6.60;99.90
10875;DHT22;5490;52.200;8.786;2023-03-29T03:01:55;6.70;99.90
10875;DHT22;5490;52.200;8.786;2023-03-29T03:04:22;6.70;99.90
10875;DHT22;5490;52.200;8.786;2023-03-29T03:06:50;6.70;99.90
10875;DHT22;5490;52.200;8.786;2023-03-29T03:09:17;6.80;99.90
10875;DHT22;5490;52.200;8.786;2023-03-29T03:11:44;6.80;99.90
10875;DHT22;5490;52.200;8.786;2023-03-29T03:37:45;6.80;99.90
10875;DHT22;5490;52.200;8.786;2023-03-29T03:40:12;7.10;99.90
10875;DHT22;5490;52.200;8.786;2023-03-29T03:59:05;7.10;99.90
10875;DHT22;5490;52.200;8.786;2023-03-29T04:01:32;7.10;99.90
10875;DHT22;5490;52.200;8.786;2023-03-29T04:03:59;7.10;99.90
10875;DHT22;5490;52.200;8.786;2023-03-29T04:06:27;7.10;99.90
10875;DHT22;5490;52.200;8.786;2023-03-29T04:08:55;7.10;99.90
10875;DHT22;5490;52.200;8.786;2023-03-29T04:11:22;7.10;99.90
10875;DHT22;5490;52.200;8.786;2023-03-29T04:13:51;7.10;99.90
10875;DHT22;5490;52.200;8.786;2023-03-29T04:16:19;7.10;99.90
10875;DHT22;5490;52.200;8.786;2023-03-29T04:18:46;7.10;99.90
10875;DHT22;5490;52.200;8.786;2023-03-29T04:21:13;7.10;99.90
10875;DHT22;5490;52.200;8.786;2023-03-29T04:23:39;7.10;99.90
10875;DHT22;5490;52.200;8.786;2023-03-29T04:26:07;7.20;99.90
10875;DHT22;5490;52.200;8.786;2023-03-29T04:28:34;7.10;99.90
10875;DHT22;5490;52.200;8.786;2023-03-29T04:31:01;7.10;99.90
10875;DHT22;5490;52.200;8.786;2023-03-29T04:33:29;7.10;99.90
10875;DHT22;5490;52.200;8.786;2023-03-29T04:35:55;7.20;99.90
10875;DHT22;5490;52.200;8.786;2023-03-29T04:38:22;7.20;99.90
10875;DHT22;5490;52.200;8.786;2023-03-29T04:40:49;7.20;99.90
10875;DHT22;5490;52.200;8.786;2023-03-29T04:43:16;7.20;99.90
10875;DHT22;5490;52.200;8.786;2023-03-29T04:45:42;7.20;99.90
10875;DHT22;5490;52.200;8.786;2023-03-29T04:48:09;7.20;99.90
10875;DHT22;5490;52.200;8.786;2023-03-29T04:50:38;7.20;99.90
10875;DHT22;5490;52.200;8.786;2023-03-29T04:53:05;7.20;99.90
10875;DHT22;5490;52.200;8.786;2023-03-29T04:55:32;7.20;99.90
10875;DHT22;5490;52.200;8.786;2023-03-29T04:57:59;7.30;99.90
10875;DHT22;5490;52.200;8.786;2023-03-29T05:00:27;7.20;99.90
10875;DHT22;5490;52.200;8.786;2023-03-29T05:02:56;7.30;99.90
10875;DHT22;5490;52.200;8.786;2023-03-29T05:05:23;7.20;99.90
10875;DHT22;5490;52.200;8.786;2023-03-29T05:07:51;7.30;99.90
10875;DHT22;5490;52.200;8.786;2023-03-29T05:10:19;7.20;99.90
10875;DHT22;5490;52.200;8.786;2023-03-29T05:12:46;7.20;99.90
10875;DHT22;5490;52.200;8.786;2023-03-29T05:15:15;7.20;99.90
10875;DHT22;5490;52.200;8.786;2023-03-29T05:17:42;7.20;99.90
10875;DHT22;5490;52.200;8.786;2023-03-29T05:20:08;7.20;99.90
10875;DHT22;5490;52.200;8.786;2023-03-29T05:22:37;7.20;99.90
10875;DHT22;5490;52.200;8.786;2023-03-29T05:25:07;7.20;99.90
10875;DHT22;5490;52.200;8.786;2023-03-29T05:27:35;7.20;99.90
10875;DHT22;5490;52.200;8.786;2023-03-29T05:30:03;7.30;99.90
10875;DHT22;5490;52.200;8.786;2023-03-29T05:32:30;7.20;99.90
10875;DHT22;5490;52.200;8.786;2023-03-29T05:34:56;7.30;99.90
10875;DHT22;5490;52.200;8.786;2023-03-29T05:37:23;7.30;99.90
10875;DHT22;5490;52.200;8.786;2023-03-29T05:39:51;7.30;99.90
10875;DHT22;5490;52.200;8.786;2023-03-29T05:42:19;7.30;99.90
10875;DHT22;5490;52.200;8.786;2023-03-29T05:44:47;7.30;99.90
10875;DHT22;5490;52.200;8.786;2023-03-29T05:47:13;7.40;99.90
10875;DHT22;5490;52.200;8.786;2023-03-29T05:49:40;7.40;99.90
10875;DHT22;5490;52.200;8.786;2023-03-29T05:52:08;7.40;99.90
10875;DHT22;5490;52.200;8.786;2023-03-29T05:54:35;7.40;99.90
10875;DHT22;5490;52.200;8.786;2023-03-29T05:57:02;7.50;99.90
10875;DHT22;5490;52.200;8.786;2023-03-29T05:59:48;7.50;99.90
10875;DHT22;5490;52.200;8.786;2023-03-29T06:02:30;7.60;99.90
10875;DHT22;5490;52.200;8.786;2023-03-29T06:04:57;7.60;99.90
10875;DHT22;5490;52.200;8.786;2023-03-29T06:07:24;7.60;99.90
10875;DHT22;5490;52.200;8.786;2023-03-29T06:09:51;7.70;99.90
10875;DHT22;5490;52.200;8.786;2023-03-29T06:12:19;7.70;99.90
10875;DHT22;5490;52.200;8.786;2023-03-29T06:14:48;7.80;99.90
10875;DHT22;5490;52.200;8.786;2023-03-29T06:17:14;7.90;99.90
10875;DHT22;5490;52.200;8.786;2023-03-29T06:19:50;7.90;99.90
10875;DHT22;5490;52.200;8.786;2023-03-29T06:22:17;7.90;99.90
10875;DHT22;5490;52.200;8.786;2023-03-29T06:24:44;7.90;99.90
10875;DHT22;5490;52.200;8.786;2023-03-29T06:27:11;8.00;99.90
10875;DHT22;5490;52.200;8.786;2023-03-29T06:29:38;8.00;99.90
10875;DHT22;5490;52.200;8.786;2023-03-29T06:32:07;8.10;99.90
10875;DHT22;5490;52.200;8.786;2023-03-29T06:34:33;8.10;99.90
10875;DHT22;5490;52.200;8.786;2023-03-29T06:37:01;8.10;99.90
10875;DHT22;5490;52.200;8.786;2023-03-29T06:39:28;8.00;99.90
10875;DHT22;5490;52.200;8.786;2023-03-29T06:41:55;8.00;99.90
10875;DHT22;5490;52.200;8.786;2023-03-29T06:44:23;8.10;99.90
10875;DHT22;5490;52.200;8.786;2023-03-29T07:01:09;8.10;99.90
10875;DHT22;5490;52.200;8.786;2023-03-29T07:03:38;8.30;99.90
10875;DHT22;5490;52.200;8.786;2023-03-29T07:06:06;8.40;99.90
10875;DHT22;5490;52.200;8.786;2023-03-29T07:08:36;8.50;99.90
10875;DHT22;5490;52.200;8.786;2023-03-29T07:11:08;8.50;99.90
10875;DHT22;5490;52.200;8.786;2023-03-29T07:13:40;8.60;99.90
10875;DHT22;5490;52.200;8.786;2023-03-29T07:16:09;8.60;99.90
10875;DHT22;5490;52.200;8.786;2023-03-29T07:18:41;8.60;99.90
10875;DHT22;5490;52.200;8.786;2023-03-29T07:21:10;8.60;99.90
10875;DHT22;5490;52.200;8.786;2023-03-29T07:32:13;8.60;99.90
10875;DHT22;5490;52.200;8.786;2023-03-29T07:34:41;8.70;99.90
10875;DHT22;5490;52.200;8.786;2023-03-29T07:37:10;8.60;99.90
10875;DHT22;5490;52.200;8.786;2023-03-29T07:39:39;8.70;99.90
10875;DHT22;5490;52.200;8.786;2023-03-29T07:42:06;8.60;99.90
10875;DHT22;5490;52.200;8.786;2023-03-29T07:47:10;8.70;99.90
10875;DHT22;5490;52.200;8.786;2023-03-29T07:49:37;8.90;99.90
10875;DHT22;5490;52.200;8.786;2023-03-29T07:52:04;9.00;99.90
10875;DHT22;5490;52.200;8.786;2023-03-29T07:54:32;9.10;99.90
10875;DHT22;5490;52.200;8.786;2023-03-29T07:56:58;9.20;99.90
10875;DHT22;5490;52.200;8.786;2023-03-29T07:59:25;9.20;99.90
10875;DHT22;5490;52.200;8.786;2023-03-29T08:01:52;9.30;99.90
10875;DHT22;5490;52.200;8.786;2023-03-29T08:04:21;9.30;99.90
10875;DHT22;5490;52.200;8.786;2023-03-29T08:06:48;9.40;99.90
10875;DHT22;5490;52.200;8.786;2023-03-29T08:09:15;9.30;99.90
10875;DHT22;5490;52.200;8.786;2023-03-29T08:11:42;9.40;99.90
10875;DHT22;5490;52.200;8.786;2023-03-29T08:14:09;9.40;99.90
10875;DHT22;5490;52.200;8.786;2023-03-29T08:16:36;9.40;99.90
10875;DHT22;5490;52.200;8.786;2023-03-29T08:19:03;9.30;99.90
10875;DHT22;5490;52.200;8.786;2023-03-29T08:21:34;9.20;99.90
10875;DHT22;5490;52.200;8.786;2023-03-29T08:24:03;9.20;99.90
10875;DHT22;5490;52.200;8.786;2023-03-29T08:26:30;9.40;99.90
10875;DHT22;5490;52.200;8.786;2023-03-29T08:28:58;9.50;99.90
10875;DHT22;5490;52.200;8.786;2023-03-29T08:31:25;9.50;99.90
10875;DHT22;5490;52.200;8.786;2023-03-29T08:33:52;9.50;99.90
10875;DHT22;5490;52.200;8.786;2023-03-29T08:36:20;9.50;99.90
10875;DHT22;5490;52.200;8.786;2023-03-29T08:38:48;9.50;99.90
10875;DHT22;5490;52.200;8.786;2023-03-29T08:41:25;9.50;99.90
10875;DHT22;5490;52.200;8.786;2023-03-29T08:44:06;9.40;99.90
10875;DHT22;5490;52.200;8.786;2023-03-29T08:46:39;9.40;99.90
10875;DHT22;5490;52.200;8.786;2023-03-29T08:49:13;9.30;99.90
10875;DHT22;5490;52.200;8.786;2023-03-29T08:51:44;9.40;99.90
10875;DHT22;5490;52.200;8.786;2023-03-29T08:54:16;9.40;99.90
10875;DHT22;5490;52.200;8.786;2023-03-29T08:56:45;9.40;99.90
10875;DHT22;5490;52.200;8.786;2023-03-29T08:59:19;9.50;99.90
10875;DHT22;5490;52.200;8.786;2023-03-29T09:01:55;9.50;99.90
10875;DHT22;5490;52.200;8.786;2023-03-29T09:04:26;9.60;99.90
10875;DHT22;5490;52.200;8.786;2023-03-29T09:06:53;9.70;99.90
10875;DHT22;5490;52.200;8.786;2023-03-29T09:09:24;9.60;99.90
10875;DHT22;5490;52.200;8.786;2023-03-29T09:12:03;9.60;99.90
10875;DHT22;5490;52.200;8.786;2023-03-29T09:14:46;9.60;99.90
10875;DHT22;5490;52.200;8.786;2023-03-29T09:17:22;9.60;99.90
10875;DHT22;5490;52.200;8.786;2023-03-29T09:19:58;9.60;99.90
10875;DHT22;5490;52.200;8.786;2023-03-29T09:22:32;9.70;99.90
10875;DHT22;5490;52.200;8.786;2023-03-29T09:25:11;9.60;99.90
10875;DHT22;5490;52.200;8.786;2023-03-29T09:27:43;9.70;99.90
10875;DHT22;5490;52.200;8.786;2023-03-29T09:30:16;9.80;99.90
10875;DHT22;5490;52.200;8.786;2023-03-29T09:32:51;9.90;99.90
10875;DHT22;5490;52.200;8.786;2023-03-29T09:35:21;10.00;99.90
10875;DHT22;5490;52.200;8.786;2023-03-29T09:37:50;10.00;99.90
10875;DHT22;5490;52.200;8.786;2023-03-29T09:40:21;10.10;99.90
10875;DHT22;5490;52.200;8.786;2023-03-29T09:42:51;10.20;99.90
10875;DHT22;5490;52.200;8.786;2023-03-29T09:45:19;10.30;99.90
10875;DHT22;5490;52.200;8.786;2023-03-29T09:47:50;10.30;99.90
10875;DHT22;5490;52.200;8.786;2023-03-29T09:50:22;10.40;99.90
10875;DHT22;5490;52.200;8.786;2023-03-29T09:52:50;10.40;99.90
10875;DHT22;5490;52.200;8.786;2023-03-29T09:55:21;10.40;99.90
10875;DHT22;5490;52.200;8.786;2023-03-29T09:57:51;10.40;99.90
10875;DHT22;5490;52.200;8.786;2023-03-29T10:00:18;10.40;99.90
10875;DHT22;5490;52.200;8.786;2023-03-29T10:02:50;10.50;99.90
10875;DHT22;5490;52.200;8.786;2023-03-29T10:05:18;10.60;99.90
10875;DHT22;5490;52.200;8.786;2023-03-29T10:07:48;10.60;99.90
10875;DHT22;5490;52.200;8.786;2023-03-29T10:10:22;10.70;99.90
10875;DHT22;5490;52.200;8.786;2023-03-29T10:12:53;10.70;99.90
10875;DHT22;5490;52.200;8.786;2023-03-29T10:15:22;10.80;99.90
10875;DHT22;5490;52.200;8.786;2023-03-29T10:17:57;10.80;99.90
10875;DHT22;5490;52.200;8.786;2023-03-29T10:20:24;10.90;99.90
10875;DHT22;5490;52.200;8.786;2023-03-29T10:22:55;11.00;99.90
10875;DHT22;5490;52.200;8.786;2023-03-29T10:25:27;11.00;99.90
10875;DHT22;5490;52.200;8.786;2023-03-29T10:28:01;11.00;99.90
10875;DHT22;5490;52.200;8.786;2023-03-29T10:30:31;11.00;99.90
10875;DHT22;5490;52.200;8.786;2023-03-29T10:33:00;11.10;99.90
10875;DHT22;5490;52.200;8.786;2023-03-29T10:35:31;11.10;99.90
10875;DHT22;5490;52.200;8.786;2023-03-29T10:37:59;11.20;99.90
10875;DHT22;5490;52.200;8.786;2023-03-29T10:40:31;11.30;99.90
10875;DHT22;5490;52.200;8.786;2023-03-29T10:42:59;11.40;99.90
10875;DHT22;5490;52.200;8.786;2023-03-29T10:45:28;11.40;99.90
10875;DHT22;5490;52.200;8.786;2023-03-29T10:47:56;11.50;99.90
10875;DHT22;5490;52.200;8.786;2023-03-29T10:50:24;11.60;99.90
10875;DHT22;5490;52.200;8.786;2023-03-29T10:52:51;11.70;99.90
10875;DHT22;5490;52.200;8.786;2023-03-29T10:55:18;11.80;99.90
10875;DHT22;5490;52.200;8.786;2023-03-29T10:57:58;11.90;99.90
10875;DHT22;5490;52.200;8.786;2023-03-29T11:00:33;12.00;99.90
10875;DHT22;5490;52.200;8.786;2023-03-29T11:03:32;12.10;99.90
10875;DHT22;5490;52.200;8.786;2023-03-29T11:06:11;12.10;99.90
10875;DHT22;5490;52.200;8.786;2023-03-29T11:08:50;12.10;99.90
10875;DHT22;5490;52.200;8.786;2023-03-29T11:11:36;12.20;99.90
10875;DHT22;5490;52.200;8.786;2023-03-29T11:14:16;12.20;99.90
10875;DHT22;5490;52.200;8.786;2023-03-29T11:16:55;12.30;99.90
10875;DHT22;5490;52.200;8.786;2023-03-29T11:19:40;12.30;99.90
10875;DHT22;5490;52.200;8.786;2023-03-29T11:22:16;12.30;99.90
10875;DHT22;5490;52.200;8.786;2023-03-29T11:25:07;12.30;99.90
10875;DHT22;5490;52.200;8.786;2023-03-29T11:27:40;12.30;99.90
10875;DHT22;5490;52.200;8.786;2023-03-29T11:30:19;12.20;99.90
10875;DHT22;5490;52.200;8.786;2023-03-29T11:32:55;12.10;99.90
10875;DHT22;5490;52.200;8.786;2023-03-29T11:35:32;12.00;99.90
10875;DHT22;5490;52.200;8.786;2023-03-29T11:38:09;12.10;99.90
10875;DHT22;5490;52.200;8.786;2023-03-29T11:40:45;12.00;99.90
10875;DHT22;5490;52.200;8.786;2023-03-29T11:43:19;12.00;99.90
10875;DHT22;5490;52.200;8.786;2023-03-29T11:45:53;11.90;99.90
10875;DHT22;5490;52.200;8.786;2023-03-29T11:48:24;11.90;99.90
10875;DHT22;5490;52.200;8.786;2023-03-29T11:50:55;11.90;99.90
10875;DHT22;5490;52.200;8.786;2023-03-29T11:53:27;11.90;99.90
10875;DHT22;5490;52.200;8.786;2023-03-29T11:55:59;11.90;99.90
10875;DHT22;5490;52.200;8.786;2023-03-29T11:58:32;11.90;99.90
10875;DHT22;5490;52.200;8.786;2023-03-29T12:01:05;11.80;99.90
10875;DHT22;5490;52.200;8.786;2023-03-29T12:03:37;11.80;99.90
10875;DHT22;5490;52.200;8.786;2023-03-29T12:06:11;11.80;99.90
10875;DHT22;5490;52.200;8.786;2023-03-29T12:08:43;11.80;99.90
10875;DHT22;5490;52.200;8.786;2023-03-29T12:11:17;11.80;99.90
10875;DHT22;5490;52.200;8.786;2023-03-29T12:13:55;11.80;99.90
10875;DHT22;5490;52.200;8.786;2023-03-29T12:16:28;11.80;99.90
10875;DHT22;5490;52.200;8.786;2023-03-29T12:19:02;11.70;99.90
10875;DHT22;5490;52.200;8.786;2023-03-29T12:21:31;11.80;99.90
10875;DHT22;5490;52.200;8.786;2023-03-29T12:24:02;11.80;99.90
10875;DHT22;5490;52.200;8.786;2023-03-29T12:26:46;11.80;99.90
10875;DHT22;5490;52.200;8.786;2023-03-29T12:29:31;11.80;99.90
10875;DHT22;5490;52.200;8.786;2023-03-29T12:32:13;11.80;99.90
10875;DHT22;5490;52.200;8.786;2023-03-29T12:34:56;11.70;99.90
10875;DHT22;5490;52.200;8.786;2023-03-29T12:37:36;11.80;99.90
10875;DHT22;5490;52.200;8.786;2023-03-29T12:40:14;11.80;99.90
10875;DHT22;5490;52.200;8.786;2023-03-29T12:42:46;11.80;99.90
10875;DHT22;5490;52.200;8.786;2023-03-29T12:45:17;11.80;99.90
10875;DHT22;5490;52.200;8.786;2023-03-29T12:47:49;11.90;99.90
10875;DHT22;5490;52.200;8.786;2023-03-29T12:50:23;11.80;99.90
10875;DHT22;5490;52.200;8.786;2023-03-29T12:53:00;11.80;99.90
10875;DHT22;5490;52.200;8.786;2023-03-29T12:55:32;11.80;99.90
10875;DHT22;5490;52.200;8.786;2023-03-29T12:58:05;11.80;99.90
10875;DHT22;5490;52.200;8.786;2023-03-29T13:00:42;11.70;99.90
10875;DHT22;5490;52.200;8.786;2023-03-29T13:03:39;11.70;99.90
10875;DHT22;5490;52.200;8.786;2023-03-29T13:06:09;11.60;99.90
10875;DHT22;5490;52.200;8.786;2023-03-29T13:08:39;11.60;99.90
10875;DHT22;5490;52.200;8.786;2023-03-29T13:11:11;11.60;99.90
10875;DHT22;5490;52.200;8.786;2023-03-29T13:13:39;11.60;99.90
10875;DHT22;5490;52.200;8.786;2023-03-29T13:16:12;11.40;99.90
10875;DHT22;5490;52.200;8.786;2023-03-29T13:18:56;11.60;99.90
10875;DHT22;5490;52.200;8.786;2023-03-29T13:21:34;11.50;99.90
10875;DHT22;5490;52.200;8.786;2023-03-29T13:24:15;11.50;99.90
10875;DHT22;5490;52.200;8.786;2023-03-29T13:26:54;11.50;99.90
10875;DHT22;5490;52.200;8.786;2023-03-29T13:29:36;11.50;99.90
10875;DHT22;5490;52.200;8.786;2023-03-29T13:32:23;11.50;99.90
10875;DHT22;5490;52.200;8.786;2023-03-29T13:34:58;11.50;99.90
10875;DHT22;5490;52.200;8.786;2023-03-29T13:37:35;11.50;99.90
10875;DHT22;5490;52.200;8.786;2023-03-29T13:40:30;11.50;99.90
10875;DHT22;5490;52.200;8.786;2023-03-29T13:42:58;11.50;99.90
10875;DHT22;5490;52.200;8.786;2023-03-29T13:45:27;11.50;99.90
10875;DHT22;5490;52.200;8.786;2023-03-29T13:48:18;11.60;99.90
10875;DHT22;5490;52.200;8.786;2023-03-29T13:50:55;11.50;99.90
10875;DHT22;5490;52.200;8.786;2023-03-29T13:53:28;11.50;99.90
10875;DHT22;5490;52.200;8.786;2023-03-29T13:55:57;11.50;99.90
10875;DHT22;5490;52.200;8.786;2023-03-29T13:58:31;11.50;99.90
10875;DHT22;5490;52.200;8.786;2023-03-29T14:01:07;11.50;99.90
10875;DHT22;5490;52.200;8.786;2023-03-29T14:03:42;11.50;99.90
10875;DHT22;5490;52.200;8.786;2023-03-29T14:06:14;11.50;99.90
10875;DHT22;5490;52.200;8.786;2023-03-29T14:08:43;11.50;99.90
10875;DHT22;5490;52.200;8.786;2023-03-29T14:11:20;11.40;99.90
10875;DHT22;5490;52.200;8.786;2023-03-29T14:13:50;11.50;99.90
10875;DHT22;5490;52.200;8.786;2023-03-29T14:16:17;11.50;99.90
10875;DHT22;5490;52.200;8.786;2023-03-29T14:18:47;11.50;99.90
10875;DHT22;5490;52.200;8.786;2023-03-29T14:21:19;11.50;99.90
10875;DHT22;5490;52.200;8.786;2023-03-29T14:23:53;11.50;99.90
10875;DHT22;5490;52.200;8.786;2023-03-29T14:26:23;11.60;99.90
10875;DHT22;5490;52.200;8.786;2023-03-29T14:28:55;11.70;99.90
10875;DHT22;5490;52.200;8.786;2023-03-29T14:31:24;11.60;99.90
10875;DHT22;5490;52.200;8.786;2023-03-29T14:33:54;11.60;99.90
10875;DHT22;5490;52.200;8.786;2023-03-29T14:36:23;11.60;99.90
10875;DHT22;5490;52.200;8.786;2023-03-29T14:38:54;11.60;99.90
10875;DHT22;5490;52.200;8.786;2023-03-29T14:41:23;11.60;99.90
10875;DHT22;5490;52.200;8.786;2023-03-29T14:44:07;11.60;99.90
10875;DHT22;5490;52.200;8.786;2023-03-29T14:46:37;11.60;99.90
10875;DHT22;5490;52.200;8.786;2023-03-29T14:49:04;11.70;99.90
10875;DHT22;5490;52.200;8.786;2023-03-29T14:51:33;11.70;99.90
10875;DHT22;5490;52.200;8.786;2023-03-29T14:54:02;11.60;99.90
10875;DHT22;5490;52.200;8.786;2023-03-29T14:56:31;11.60;99.90
10875;DHT22;5490;52.200;8.786;2023-03-29T14:59:00;11.60;99.90
10875;DHT22;5490;52.200;8.786;2023-03-29T15:01:28;11.60;99.90
10875;DHT22;5490;52.200;8.786;2023-03-29T15:04:01;11.60;99.90
10875;DHT22;5490;52.200;8.786;2023-03-29T15:06:35;11.60;99.90
10875;DHT22;5490;52.200;8.786;2023-03-29T15:09:06;11.60;99.90
10875;DHT22;5490;52.200;8.786;2023-03-29T15:11:34;11.60;99.90
10875;DHT22;5490;52.200;8.786;2023-03-29T15:14:03;11.60;99.90
10875;DHT22;5490;52.200;8.786;2023-03-29T15:16:31;11.60;99.90
10875;DHT22;5490;52.200;8.786;2023-03-29T15:19:04;11.60;99.90
10875;DHT22;5490;52.200;8.786;2023-03-29T15:21:33;11.60;99.90
10875;DHT22;5490;52.200;8.786;2023-03-29T15:24:02;11.60;99.90
10875;DHT22;5490;52.200;8.786;2023-03-29T15:26:30;11.60;99.90
10875;DHT22;5490;52.200;8.786;2023-03-29T15:29:01;11.60;99.90
10875;DHT22;5490;52.200;8.786;2023-03-29T15:31:34;11.70;99.90
10875;DHT22;5490;52.200;8.786;2023-03-29T15:34:02;11.70;99.90
10875;DHT22;5490;52.200;8.786;2023-03-29T15:36:29;11.60;99.90
10875;DHT22;5490;52.200;8.786;2023-03-29T15:38:58;11.70;99.90
10875;DHT22;5490;52.200;8.786;2023-03-29T15:41:25;11.70;99.90
10875;DHT22;5490;52.200;8.786;2023-03-29T15:43:53;11.70;99.90
10875;DHT22;5490;52.200;8.786;2023-03-29T15:46:20;11.70;99.90
10875;DHT22;5490;52.200;8.786;2023-03-29T15:48:47;11.70;99.90
10875;DHT22;5490;52.200;8.786;2023-03-29T15:51:13;11.70;99.90
10875;DHT22;5490;52.200;8.786;2023-03-29T15:53:40;11.70;99.90
10875;DHT22;5490;52.200;8.786;2023-03-29T15:56:15;11.70;99.90
10875;DHT22;5490;52.200;8.786;2023-03-29T15:58:43;11.80;99.90
10875;DHT22;5490;52.200;8.786;2023-03-29T16:01:20;11.70;99.90
10875;DHT22;5490;52.200;8.786;2023-03-29T16:03:58;11.70;99.90
10875;DHT22;5490;52.200;8.786;2023-03-29T16:06:25;11.70;99.90
10875;DHT22;5490;52.200;8.786;2023-03-29T16:08:52;11.70;99.90
10875;DHT22;5490;52.200;8.786;2023-03-29T16:11:20;11.70;99.90
10875;DHT22;5490;52.200;8.786;2023-03-29T16:13:47;11.80;99.90
10875;DHT22;5490;52.200;8.786;2023-03-29T16:16:13;11.70;99.90
10875;DHT22;5490;52.200;8.786;2023-03-29T16:18:41;11.60;99.90
10875;DHT22;5490;52.200;8.786;2023-03-29T16:21:10;11.70;99.90
10875;DHT22;5490;52.200;8.786;2023-03-29T16:23:38;11.70;99.90
10875;DHT22;5490;52.200;8.786;2023-03-29T16:26:06;11.80;99.90
10875;DHT22;5490;52.200;8.786;2023-03-29T16:28:34;11.80;99.90
10875;DHT22;5490;52.200;8.786;2023-03-29T16:31:02;11.80;99.90
10875;DHT22;5490;52.200;8.786;2023-03-29T16:33:29;11.80;99.90
10875;DHT22;5490;52.200;8.786;2023-03-29T16:35:55;11.80;99.90
10875;DHT22;5490;52.200;8.786;2023-03-29T16:38:22;11.80;99.90
10875;DHT22;5490;52.200;8.786;2023-03-29T16:40:50;11.80;99.90
10875;DHT22;5490;52.200;8.786;2023-03-29T16:43:18;11.80;99.90
10875;DHT22;5490;52.200;8.786;2023-03-29T16:45:46;11.80;99.90
10875;DHT22;5490;52.200;8.786;2023-03-29T16:48:15;11.80;99.90
10875;DHT22;5490;52.200;8.786;2023-03-29T16:50:42;11.80;99.90
10875;DHT22;5490;52.200;8.786;2023-03-29T16:53:09;11.70;99.90
10875;DHT22;5490;52.200;8.786;2023-03-29T16:55:36;11.70;99.90
10875;DHT22;5490;52.200;8.786;2023-03-29T16:58:03;11.70;99.90
10875;DHT22;5490;52.200;8.786;2023-03-29T17:00:30;11.70;99.90
10875;DHT22;5490;52.200;8.786;2023-03-29T17:02:59;11.70;99.90
10875;DHT22;5490;52.200;8.786;2023-03-29T17:05:26;11.70;99.90
10875;DHT22;5490;52.200;8.786;2023-03-29T17:07:53;11.60;99.90
10875;DHT22;5490;52.200;8.786;2023-03-29T17:10:21;11.60;99.90
10875;DHT22;5490;52.200;8.786;2023-03-29T17:12:48;11.60;99.90
10875;DHT22;5490;52.200;8.786;2023-03-29T17:15:15;11.50;99.90
10875;DHT22;5490;52.200;8.786;2023-03-29T17:17:42;11.50;99.90
10875;DHT22;5490;52.200;8.786;2023-03-29T17:20:10;11.50;99.90
10875;DHT22;5490;52.200;8.786;2023-03-29T17:22:38;11.40;99.90
10875;DHT22;5490;52.200;8.786;2023-03-29T17:25:06;11.40;99.90
10875;DHT22;5490;52.200;8.786;2023-03-29T17:27:33;11.40;99.90
10875;DHT22;5490;52.200;8.786;2023-03-29T17:30:00;11.40;99.90